Time;durP1;ratioP1;P1;durP2;ratioP2;P2;SDS_P1;SDS_P2;PMS_P1;PMS_P2;Temp;Humidity;BMP_temperature;BMP_pressure;BME280_temperature;BME280_humidity;BME280_pressure;Samples;Min_cycle;Max_cycle;Signal;HPM_P1;HPM_P2
2023/09/07 00:02:18;;;;;;;4.43;2.10;;;15.50;99.90;;;;;;5090337;28;20089;-89
2023/09/07 00:04:43;;;;;;;7.30;2.55;;;15.40;99.90;;;;;;5090051;28;20416;-89
2023/09/07 00:07:09;;;;;;;3.30;1.70;;;15.40;99.90;;;;;;5088913;28;20509;-88
2023/09/07 00:09:35;;;;;;;4.00;2.22;;;15.40;99.90;;;;;;5090653;28;20412;-89
2023/09/07 00:12:00;;;;;;;6.18;2.63;;;15.40;99.90;;;;;;5089746;28;20024;-89
2023/09/07 00:14:26;;;;;;;6.60;2.25;;;15.40;99.90;;;;;;5090547;28;20496;-90
2023/09/07 00:16:52;;;;;;;4.88;2.25;;;15.40;99.90;;;;;;5089019;28;20051;-90
2023/09/07 00:19:17;;;;;;;4.25;2.10;;;15.40;99.90;;;;;;5091096;28;20036;-88
2023/09/07 00:21:43;;;;;;;3.28;1.92;;;15.30;99.90;;;;;;5089593;28;20036;-89
2023/09/07 00:24:10;;;;;;;4.75;2.50;;;15.30;99.90;;;;;;5089623;28;20028;-90
2023/09/07 00:26:35;;;;;;;5.70;3.38;;;15.30;99.90;;;;;;5089410;28;20492;-88
2023/09/07 00:29:01;;;;;;;4.18;2.42;;;15.30;99.90;;;;;;5090200;28;20123;-87
2023/09/07 00:31:27;;;;;;;;;;;15.30;99.90;;;;;;5090569;28;20030;-89
2023/09/07 00:33:52;;;;;;;6.80;2.55;;;15.20;99.90;;;;;;5090294;28;19942;-90
2023/09/07 00:36:18;;;;;;;4.28;2.38;;;15.20;99.90;;;;;;5091648;28;20067;-90
2023/09/07 00:38:44;;;;;;;5.50;2.55;;;15.20;99.90;;;;;;5090483;28;20515;-88
2023/09/07 00:41:09;;;;;;;;;;;15.10;99.90;;;;;;5090661;28;20031;-89
2023/09/07 00:43:35;;;;;;;5.65;2.65;;;15.10;99.90;;;;;;5090417;28;19912;-87
2023/09/07 00:46:00;;;;;;;5.57;2.30;;;15.10;99.90;;;;;;5089005;28;20086;-87
2023/09/07 00:48:26;;;;;;;4.72;2.53;;;15.10;99.90;;;;;;5088780;28;20036;-90
2023/09/07 00:50:52;;;;;;;10.20;2.63;;;15.10;99.90;;;;;;5090514;28;20099;-88
2023/09/07 00:53:18;;;;;;;3.25;1.80;;;15.10;99.90;;;;;;5094544;28;20028;-88
2023/09/07 00:55:45;;;;;;;5.28;2.30;;;15.10;99.90;;;;;;5093178;28;20111;-89
2023/09/07 00:58:12;;;;;;;4.85;2.92;;;15.10;99.90;;;;;;5094082;28;20081;-86
2023/09/07 01:00:38;;;;;;;3.67;1.90;;;15.10;99.90;;;;;;5094162;28;20085;-87
2023/09/07 01:03:03;;;;;;;4.95;2.47;;;15.10;99.90;;;;;;5094024;28;20036;-90
2023/09/07 01:05:39;;;;;;;;;;;15.10;99.90;;;;;;5094321;28;20035;-88
2023/09/07 01:08:23;;;;;;;3.50;2.15;;;15.10;99.90;;;;;;5093818;28;20441;-86
2023/09/07 01:10:48;;;;;;;4.63;2.50;;;15.10;99.90;;;;;;5093813;28;20032;-88
2023/09/07 01:13:14;;;;;;;;;;;15.10;99.90;;;;;;5094588;28;20081;-89
2023/09/07 01:15:39;;;;;;;5.22;2.50;;;15.10;99.90;;;;;;5092366;28;19912;-88
2023/09/07 01:18:05;;;;;;;;;;;15.10;99.90;;;;;;5094064;28;20058;-87
2023/09/07 01:20:33;;;;;;;4.80;2.60;;;15.10;99.90;;;;;;5092834;28;19998;-89
2023/09/07 01:22:58;;;;;;;6.18;2.65;;;15.10;99.90;;;;;;5093725;28;20024;-88
2023/09/07 01:25:24;;;;;;;4.13;2.55;;;15.10;99.90;;;;;;5093145;28;20085;-89
2023/09/07 01:27:50;;;;;;;;;;;15.00;99.90;;;;;;5093541;28;20032;-88
2023/09/07 01:30:16;;;;;;;6.40;2.80;;;15.10;99.90;;;;;;5093920;28;19999;-89
2023/09/07 01:32:42;;;;;;;6.05;2.72;;;15.10;99.90;;;;;;5092556;28;20031;-89
2023/09/07 01:35:10;;;;;;;4.43;2.40;;;15.10;99.90;;;;;;5094268;28;20103;-88
2023/09/07 01:37:36;;;;;;;5.65;2.67;;;15.10;99.90;;;;;;5093316;28;20134;-89
2023/09/07 01:40:07;;;;;;;4.45;2.40;;;15.10;99.90;;;;;;5092812;28;20110;-88
2023/09/07 01:42:33;;;;;;;5.28;2.55;;;15.10;99.90;;;;;;5094197;28;20117;-90
2023/09/07 01:44:58;;;;;;;5.05;2.97;;;15.10;99.90;;;;;;5093951;28;20023;-89
2023/09/07 01:47:24;;;;;;;5.80;3.00;;;15.00;99.90;;;;;;5092708;28;20042;-89
2023/09/07 01:49:50;;;;;;;5.07;2.90;;;15.00;99.90;;;;;;5093242;28;20043;-91
2023/09/07 01:52:16;;;;;;;5.38;2.80;;;15.00;99.90;;;;;;5091939;28;20020;-90
2023/09/07 01:54:41;;;;;;;;;;;15.00;99.90;;;;;;5092604;28;20032;-90
2023/09/07 01:57:07;;;;;;;5.32;2.83;;;14.90;99.90;;;;;;5092515;28;19975;-89
2023/09/07 01:59:32;;;;;;;5.05;2.35;;;14.90;99.90;;;;;;5092369;28;20174;-89
2023/09/07 02:01:58;;;;;;;6.85;3.03;;;14.90;99.90;;;;;;5092699;28;20024;-89
2023/09/07 02:04:24;;;;;;;5.18;2.58;;;14.90;99.90;;;;;;5091713;28;20058;-89
2023/09/07 02:06:49;;;;;;;;;;;14.90;99.90;;;;;;5094142;28;20096;-90
2023/09/07 02:09:15;;;;;;;6.70;3.40;;;14.90;99.90;;;;;;5093604;28;20389;-90
2023/09/07 02:11:41;;;;;;;7.00;2.88;;;14.80;99.90;;;;;;5092645;28;20063;-89
2023/09/07 02:14:06;;;;;;;;;;;14.80;99.90;;;;;;5092836;28;20480;-90
2023/09/07 02:16:32;;;;;;;4.47;2.55;;;14.70;99.90;;;;;;5092437;28;20275;-91
2023/09/07 02:19:03;;;;;;;6.82;2.65;;;14.70;99.90;;;;;;5093514;28;20032;-90
2023/09/07 02:21:29;;;;;;;6.50;3.63;;;14.60;99.90;;;;;;5091533;28;20096;-89
2023/09/07 02:23:54;;;;;;;;;;;14.60;99.90;;;;;;5091524;28;20525;-85
2023/09/07 02:26:20;;;;;;;4.97;2.63;;;14.50;99.90;;;;;;5091303;28;19911;-89
2023/09/07 02:28:46;;;;;;;7.32;3.00;;;14.50;99.90;;;;;;5093069;28;20028;-87
2023/09/07 02:31:11;;;;;;;;;;;14.50;99.90;;;;;;5094534;28;20024;-88
2023/09/07 02:33:37;;;;;;;5.82;3.03;;;14.50;99.90;;;;;;5091033;28;20287;-87
2023/09/07 02:36:03;;;;;;;;;;;14.50;99.90;;;;;;5092385;28;20476;-87
2023/09/07 02:38:28;;;;;;;4.40;2.45;;;14.50;99.90;;;;;;5092266;28;19904;-88
2023/09/07 02:40:56;;;;;;;7.80;2.70;;;14.50;99.90;;;;;;5092291;28;20034;-88
2023/09/07 02:43:22;;;;;;;4.00;2.38;;;14.50;99.90;;;;;;5092415;28;20108;-89
2023/09/07 02:45:49;;;;;;;6.03;2.50;;;14.50;99.90;;;;;;5091378;28;20024;-87
2023/09/07 02:48:15;;;;;;;5.22;2.97;;;14.50;99.90;;;;;;5091688;28;20797;-87
2023/09/07 02:50:42;;;;;;;;;;;14.50;99.90;;;;;;5091737;28;20066;-87
2023/09/07 02:53:08;;;;;;;11.02;2.58;;;14.40;99.90;;;;;;5089909;28;20355;-88
2023/09/07 02:55:34;;;;;;;4.47;2.53;;;14.40;99.90;;;;;;5091783;28;20059;-88
2023/09/07 02:58:03;;;;;;;4.95;3.08;;;14.40;99.90;;;;;;5092754;28;20031;-88
2023/09/07 03:00:28;;;;;;;4.88;2.80;;;14.50;99.90;;;;;;5092188;28;20081;-89
2023/09/07 03:02:54;;;;;;;;;;;14.50;99.90;;;;;;5092033;28;20036;-86
2023/09/07 03:05:19;;;;;;;9.52;2.80;;;14.50;99.90;;;;;;5091793;28;19934;-89
2023/09/07 03:07:46;;;;;;;;;;;14.40;99.90;;;;;;5091377;28;20048;-89
2023/09/07 03:10:12;;;;;;;6.43;2.90;;;14.40;99.90;;;;;;5090467;28;19911;-87
2023/09/07 03:12:37;;;;;;;;;;;14.40;99.90;;;;;;5091316;28;20032;-88
2023/09/07 03:15:04;;;;;;;4.45;2.78;;;14.40;99.90;;;;;;5091782;28;19912;-89
2023/09/07 03:17:30;;;;;;;4.78;2.67;;;14.40;99.90;;;;;;5091703;28;20029;-85
2023/09/07 03:19:56;;;;;;;;;;;14.40;99.90;;;;;;5091536;28;20032;-86
2023/09/07 03:22:23;;;;;;;6.13;2.42;;;14.40;99.90;;;;;;5090797;28;19959;-86
2023/09/07 03:24:51;;;;;;;5.38;2.53;;;14.40;99.90;;;;;;5089651;28;20327;-86
2023/09/07 03:27:16;;;;;;;5.93;2.80;;;14.40;99.90;;;;;;5089486;28;20038;-85
2023/09/07 03:29:43;;;;;;;;;;;14.40;99.90;;;;;;5091324;28;20438;-86
2023/09/07 03:32:09;;;;;;;5.18;2.70;;;14.40;99.90;;;;;;5091213;28;19904;-86
2023/09/07 03:34:34;;;;;;;7.78;2.97;;;14.30;99.90;;;;;;5091107;28;20028;-85
2023/09/07 03:37:00;;;;;;;9.50;2.90;;;14.30;99.90;;;;;;5090730;28;20024;-85
2023/09/07 03:39:26;;;;;;;6.82;2.97;;;14.30;99.90;;;;;;5089449;28;20377;-86
2023/09/07 03:41:52;;;;;;;5.90;3.33;;;14.30;99.90;;;;;;5089648;28;20067;-84
2023/09/07 03:44:17;;;;;;;;;;;14.40;99.90;;;;;;5091089;28;20467;-84
2023/09/07 03:46:43;;;;;;;5.40;2.70;;;14.30;99.90;;;;;;5091277;28;19911;-86
2023/09/07 03:49:09;;;;;;;8.27;2.85;;;14.30;99.90;;;;;;5089706;28;20028;-86
2023/09/07 03:51:34;;;;;;;5.97;2.92;;;14.30;99.90;;;;;;5090411;28;20028;-84
2023/09/07 03:54:00;;;;;;;5.43;3.17;;;14.30;99.90;;;;;;5090886;28;20059;-85
2023/09/07 03:56:26;;;;;;;;;;;14.30;99.90;;;;;;5090681;28;20067;-87
2023/09/07 03:58:51;;;;;;;7.00;2.63;;;14.40;99.90;;;;;;5089531;28;19950;-87
2023/09/07 04:01:17;;;;;;;5.10;2.83;;;14.40;99.90;;;;;;5090869;28;20034;-86
2023/09/07 04:03:43;;;;;;;5.80;2.90;;;14.50;99.90;;;;;;5090632;28;20129;-85
2023/09/07 04:06:09;;;;;;;8.43;3.28;;;14.50;99.90;;;;;;5091194;28;20043;-86
2023/09/07 04:08:35;;;;;;;4.97;3.05;;;14.50;99.90;;;;;;5090543;28;20112;-86
2023/09/07 04:11:05;;;;;;;4.30;2.75;;;14.60;99.90;;;;;;5091477;28;20119;-85
2023/09/07 04:13:31;;;;;;;5.00;2.80;;;14.50;99.90;;;;;;5090719;28;20020;-87
2023/09/07 04:15:57;;;;;;;6.50;3.03;;;14.50;99.90;;;;;;5090566;28;20052;-86
2023/09/07 04:18:23;;;;;;;4.65;2.80;;;14.50;99.90;;;;;;5090706;28;20035;-86
2023/09/07 04:20:49;;;;;;;5.95;2.60;;;14.60;99.90;;;;;;5091466;28;20028;-86
2023/09/07 04:23:15;;;;;;;;;;;14.70;99.90;;;;;;5091926;28;20093;-85
2023/09/07 04:25:40;;;;;;;4.88;2.90;;;14.60;99.90;;;;;;5091460;28;20360;-86
2023/09/07 04:28:06;;;;;;;;;;;14.60;99.90;;;;;;5090467;28;20523;-86
2023/09/07 04:30:33;;;;;;;5.72;2.65;;;14.70;99.90;;;;;;5091616;28;19904;-84
2023/09/07 04:32:58;;;;;;;3.70;2.50;;;14.70;99.90;;;;;;5090262;28;20514;-86
2023/09/07 04:35:30;;;;;;;7.70;3.00;;;14.80;99.90;;;;;;5091069;28;20062;-86
2023/09/07 04:37:56;;;;;;;5.20;2.65;;;15.00;99.90;;;;;;5091257;28;20024;-86
2023/09/07 04:40:23;;;;;;;5.20;2.88;;;15.00;99.90;;;;;;5090992;28;20029;-84
2023/09/07 04:42:49;;;;;;;7.75;2.85;;;15.10;99.90;;;;;;5090963;28;20024;-85
2023/09/07 04:45:15;;;;;;;3.95;2.47;;;15.20;99.90;;;;;;5089753;28;20097;-86
2023/09/07 04:47:40;;;;;;;8.07;2.78;;;15.30;99.90;;;;;;5089631;28;20028;-85
2023/09/07 04:50:06;;;;;;;4.32;2.65;;;15.40;99.90;;;;;;5089197;28;20032;-85
2023/09/07 04:52:34;;;;;;;4.22;2.65;;;15.50;99.90;;;;;;5089976;28;20027;-86
2023/09/07 04:55:00;;;;;;;7.28;2.72;;;15.80;99.90;;;;;;5089260;28;20021;-85
2023/09/07 04:57:26;;;;;;;6.63;2.58;;;16.20;99.90;;;;;;5089381;28;20032;-86
2023/09/07 04:59:51;;;;;;;4.45;2.38;;;16.70;99.90;;;;;;5089507;28;20020;-88
2023/09/07 05:02:17;;;;;;;8.50;2.53;;;17.00;99.90;;;;;;5090580;28;20032;-87
2023/09/07 05:04:43;;;;;;;4.30;2.58;;;17.30;99.90;;;;;;5089137;28;20024;-84
2023/09/07 05:07:08;;;;;;;9.13;2.40;;;17.60;99.90;;;;;;5089828;28;20036;-87
2023/09/07 05:09:34;;;;;;;5.88;2.88;;;17.80;99.90;;;;;;5090452;28;20032;-87
2023/09/07 05:12:00;;;;;;;5.25;2.70;;;17.70;99.90;;;;;;5090275;28;20032;-87
2023/09/07 05:14:25;;;;;;;4.80;2.55;;;17.70;99.90;;;;;;5089990;28;20127;-85
2023/09/07 05:16:51;;;;;;;7.32;2.47;;;18.10;99.90;;;;;;5086312;28;20056;-82
2023/09/07 05:19:17;;;;;;;9.68;2.28;;;18.90;99.90;;;;;;5082330;28;20465;-82
2023/09/07 05:21:43;;;;;;;5.35;2.35;;;19.50;99.90;;;;;;5087297;28;20036;-82
2023/09/07 05:24:08;;;;;;;6.50;2.55;;;20.00;99.90;;;;;;5088177;28;20082;-83
2023/09/07 05:26:34;;;;;;;6.63;2.65;;;20.50;99.90;;;;;;5089088;28;20032;-82
2023/09/07 05:29:00;;;;;;;16.98;2.60;;;20.90;99.60;;;;;;5089267;28;20496;-82
2023/09/07 05:31:26;;;;;;;7.20;3.28;;;21.20;98.70;;;;;;5088524;28;20404;-81
2023/09/07 05:33:52;;;;;;;8.43;2.65;;;21.50;97.50;;;;;;5089750;28;20614;-83
2023/09/07 05:36:18;;;;;;;5.25;2.65;;;21.60;96.70;;;;;;5088585;28;20021;-82
2023/09/07 05:38:43;;;;;;;5.75;2.38;;;21.90;96.10;;;;;;5091117;28;20028;-82
2023/09/07 05:41:09;;;;;;;8.40;2.85;;;22.00;95.50;;;;;;5091832;28;20035;-81
2023/09/07 05:43:35;;;;;;;5.70;3.10;;;22.30;94.90;;;;;;5091540;28;20058;-81
2023/09/07 05:46:01;;;;;;;11.93;3.75;;;22.50;94.20;;;;;;5091728;28;20103;-81
2023/09/07 05:48:27;;;;;;;9.50;2.97;;;22.70;93.60;;;;;;5091945;28;20036;-82
2023/09/07 05:50:52;;;;;;;8.68;3.05;;;23.00;93.50;;;;;;5089311;28;20624;-82
2023/09/07 05:53:21;;;;;;;10.73;4.10;;;23.20;92.80;;;;;;5092002;28;20498;-82
2023/09/07 05:55:47;;;;;;;4.82;2.70;;;23.40;92.00;;;;;;5092027;28;20115;-84
2023/09/07 05:58:14;;;;;;;9.57;4.03;;;23.60;90.70;;;;;;5091953;28;20100;-82
2023/09/07 06:00:40;;;;;;;7.95;2.70;;;23.90;90.30;;;;;;5091636;28;20023;-82
2023/09/07 06:03:07;;;;;;;4.78;2.67;;;24.20;86.90;;;;;;5091542;28;20028;-83
2023/09/07 06:05:38;;;;;;;4.50;2.78;;;24.30;83.80;;;;;;5091743;28;20152;-81
2023/09/07 06:08:04;;;;;;;6.07;3.10;;;24.40;82.00;;;;;;5090217;28;20032;-82
2023/09/07 06:10:30;;;;;;;4.93;2.90;;;24.60;81.00;;;;;;5091148;28;20564;-82
2023/09/07 06:12:57;;;;;;;6.18;2.88;;;24.90;78.20;;;;;;5090406;28;20040;-82
2023/09/07 06:15:23;;;;;;;10.15;3.03;;;25.30;76.20;;;;;;5091485;28;20032;-81
2023/09/07 06:17:49;;;;;;;6.65;3.00;;;25.60;74.80;;;;;;5092009;28;20122;-82
2023/09/07 06:20:15;;;;;;;7.95;3.30;;;25.90;73.50;;;;;;5091561;28;20024;-83
2023/09/07 06:22:41;;;;;;;6.07;3.25;;;26.50;69.00;;;;;;5091476;28;20043;-82
2023/09/07 06:25:07;;;;;;;9.73;3.15;;;27.00;68.80;;;;;;5091270;28;20024;-82
2023/09/07 06:27:33;;;;;;;12.00;3.63;;;27.40;65.10;;;;;;5091155;28;20040;-82
2023/09/07 06:29:58;;;;;;;4.07;2.90;;;27.90;63.20;;;;;;5091362;28;20026;-82
2023/09/07 06:32:24;;;;;;;9.65;2.85;;;28.40;60.20;;;;;;5091329;28;20099;-82
2023/09/07 06:34:50;;;;;;;9.35;2.78;;;28.20;60.10;;;;;;5089520;28;20050;-83
2023/09/07 06:37:16;;;;;;;5.10;2.78;;;28.40;59.60;;;;;;5091097;28;20425;-82
2023/09/07 06:39:44;;;;;;;5.43;2.67;;;28.50;58.10;;;;;;5091149;28;20028;-82
2023/09/07 06:42:10;;;;;;;4.65;2.85;;;28.80;57.90;;;;;;5089547;28;20106;-83
2023/09/07 06:44:36;;;;;;;4.80;3.10;;;28.70;56.50;;;;;;5089822;28;20032;-80
2023/09/07 06:47:02;;;;;;;5.35;3.35;;;28.70;56.60;;;;;;5090391;28;20021;-81
2023/09/07 06:49:29;;;;;;;5.90;3.20;;;29.00;55.90;;;;;;5090267;28;20032;-81
2023/09/07 06:51:55;;;;;;;7.60;3.63;;;29.50;54.20;;;;;;5090854;28;20035;-82
2023/09/07 06:54:21;;;;;;;4.85;3.35;;;29.60;53.00;;;;;;5089413;28;20071;-81
2023/09/07 06:56:47;;;;;;;8.10;3.03;;;29.90;52.60;;;;;;5089374;28;20149;-83
2023/09/07 06:59:13;;;;;;;5.13;3.10;;;30.10;50.80;;;;;;5089257;28;20058;-82
2023/09/07 07:01:39;;;;;;;5.95;3.17;;;30.10;50.80;;;;;;5090609;28;20455;-82
2023/09/07 07:04:05;;;;;;;6.72;3.10;;;30.00;50.00;;;;;;5090842;28;20060;-83
2023/09/07 07:06:31;;;;;;;4.93;2.65;;;29.80;49.90;;;;;;5089206;28;20031;-81
2023/09/07 07:08:56;;;;;;;7.32;2.97;;;29.90;50.70;;;;;;5089050;28;20539;-83
2023/09/07 07:11:22;;;;;;;6.82;3.08;;;30.10;50.20;;;;;;5088795;28;20035;-82
2023/09/07 07:13:47;;;;;;;4.50;3.20;;;30.20;49.50;;;;;;5088827;28;20028;-82
2023/09/07 07:16:13;;;;;;;5.50;3.13;;;30.10;48.80;;;;;;5087905;28;20524;-81
2023/09/07 07:18:39;;;;;;;6.57;3.30;;;30.10;49.00;;;;;;5090648;28;20024;-82
2023/09/07 07:21:05;;;;;;;5.00;3.35;;;30.40;48.20;;;;;;5090791;28;20028;-81
2023/09/07 07:23:31;;;;;;;6.03;3.42;;;30.80;48.50;;;;;;5088971;28;20390;-82
2023/09/07 07:25:57;;;;;;;12.57;3.25;;;31.20;47.30;;;;;;5090723;28;20055;-81
2023/09/07 07:28:22;;;;;;;5.30;3.38;;;31.40;46.30;;;;;;5088888;28;20108;-81
2023/09/07 07:30:48;;;;;;;6.28;3.33;;;31.40;47.40;;;;;;5088941;28;20480;-82
2023/09/07 07:33:14;;;;;;;6.53;3.05;;;31.50;45.90;;;;;;5088801;28;20454;-82
2023/09/07 07:35:40;;;;;;;5.07;3.17;;;31.70;45.50;;;;;;5090097;28;20024;-81
2023/09/07 07:38:07;;;;;;;8.07;2.92;;;31.80;44.70;;;;;;5089079;28;20047;-82
2023/09/07 07:40:33;;;;;;;7.47;3.38;;;32.00;44.90;;;;;;5088194;28;20016;-80
2023/09/07 07:42:59;;;;;;;14.50;3.65;;;32.10;43.80;;;;;;5088159;28;20035;-81
2023/09/07 07:45:25;;;;;;;5.18;3.50;;;32.10;43.30;;;;;;5085140;28;20025;-82
2023/09/07 07:47:51;;;;;;;9.15;4.55;;;32.10;42.90;;;;;;5077019;28;20437;-82
2023/09/07 07:50:17;;;;;;;7.03;3.85;;;32.10;43.60;;;;;;5069025;28;20060;-81
2023/09/07 07:52:44;;;;;;;8.10;3.53;;;32.40;44.10;;;;;;5069174;28;20056;-82
2023/09/07 07:55:11;;;;;;;7.75;3.33;;;32.40;42.60;;;;;;5069273;28;20096;-81
2023/09/07 07:57:36;;;;;;;4.57;2.85;;;32.50;43.30;;;;;;5068683;28;20381;-82
2023/09/07 08:00:04;;;;;;;6.00;3.28;;;32.90;42.50;;;;;;5087916;28;20035;-82
2023/09/07 08:02:30;;;;;;;5.10;3.15;;;33.00;42.40;;;;;;5088410;28;20023;-82
2023/09/07 08:04:55;;;;;;;5.75;2.92;;;32.80;41.80;;;;;;5088693;28;20028;-83
2023/09/07 08:07:21;;;;;;;8.38;2.97;;;32.50;41.80;;;;;;5087524;28;20078;-82
2023/09/07 08:09:47;;;;;;;5.82;3.17;;;32.60;41.90;;;;;;5088619;28;20024;-81
2023/09/07 08:12:13;;;;;;;7.50;3.30;;;32.70;42.10;;;;;;5089168;28;20031;-82
2023/09/07 08:14:38;;;;;;;5.80;2.80;;;33.10;42.00;;;;;;5088649;28;20020;-82
2023/09/07 08:17:04;;;;;;;5.57;2.92;;;33.30;40.80;;;;;;5089418;28;20139;-82
2023/09/07 08:19:30;;;;;;;13.13;2.75;;;33.20;40.70;;;;;;5087466;28;20554;-83
2023/09/07 08:21:58;;;;;;;11.48;3.00;;;33.20;40.90;;;;;;5087675;28;20431;-82
2023/09/07 08:24:24;;;;;;;4.28;3.00;;;32.90;41.30;;;;;;5087701;28;20031;-82
2023/09/07 08:26:50;;;;;;;3.65;2.53;;;32.70;41.80;;;;;;5087722;28;20435;-81
2023/09/07 08:29:16;;;;;;;5.20;2.88;;;32.70;41.90;;;;;;5089024;28;20658;-82
2023/09/07 08:31:45;;;;;;;9.55;3.20;;;32.70;40.90;;;;;;5089062;28;20095;-83
2023/09/07 08:34:14;;;;;;;6.55;3.28;;;32.80;41.50;;;;;;5087487;28;20028;-82
2023/09/07 08:36:40;;;;;;;6.43;3.35;;;32.50;41.90;;;;;;5087409;28;20461;-82
2023/09/07 08:39:08;;;;;;;7.15;2.85;;;32.50;41.60;;;;;;5089046;28;20536;-82
2023/09/07 08:41:43;;;;;;;6.75;2.78;;;32.40;41.00;;;;;;5087056;28;20027;-82
2023/09/07 08:44:22;;;;;;;6.82;2.75;;;32.50;41.10;;;;;;5091823;28;20027;-82
2023/09/07 08:46:51;;;;;;;5.47;2.88;;;32.80;40.50;;;;;;5084031;28;20036;-82
2023/09/07 08:49:20;;;;;;;5.20;2.80;;;32.80;39.10;;;;;;5078973;28;20021;-81
2023/09/07 08:51:46;;;;;;;6.13;2.53;;;32.50;39.50;;;;;;5076615;28;20081;-81
2023/09/07 08:54:12;;;;;;;5.18;2.63;;;32.60;40.40;;;;;;5097744;28;20032;-82
2023/09/07 08:56:38;;;;;;;3.95;2.88;;;32.40;39.30;;;;;;5107721;28;20020;-81
2023/09/07 08:59:04;;;;;;;8.43;2.60;;;32.60;38.50;;;;;;5109001;28;20484;-82
2023/09/07 09:01:33;;;;;;;9.30;3.25;;;32.80;37.60;;;;;;5109043;28;20484;-82
2023/09/07 09:03:58;;;;;;;6.75;2.78;;;32.70;36.90;;;;;;5108106;28;20031;-82
2023/09/07 09:06:25;;;;;;;3.47;2.50;;;32.70;38.30;;;;;;5107959;28;20028;-81
2023/09/07 09:08:55;;;;;;;3.75;2.38;;;32.60;37.60;;;;;;5109449;28;20076;-83
2023/09/07 09:11:23;;;;;;;4.45;2.65;;;32.50;37.40;;;;;;5109155;28;20062;-83
2023/09/07 09:13:49;;;;;;;9.20;2.10;;;32.60;36.70;;;;;;5112540;28;20019;-82
2023/09/07 09:16:16;;;;;;;4.15;2.40;;;32.80;35.40;;;;;;5113124;28;20529;-83
2023/09/07 09:18:56;;;;;;;8.85;2.60;;;32.60;36.00;;;;;;5111985;28;20054;-81
2023/09/07 09:21:22;;;;;;;5.05;2.60;;;32.90;36.10;;;;;;5113122;28;20035;-83
2023/09/07 09:23:50;;;;;;;4.00;2.53;;;33.00;36.20;;;;;;5111338;28;20151;-82
2023/09/07 09:26:16;;;;;;;5.40;2.60;;;32.80;36.20;;;;;;5111490;28;20514;-83
2023/09/07 09:28:44;;;;;;;4.13;2.25;;;33.10;36.50;;;;;;5111391;28;20040;-82
2023/09/07 09:31:12;;;;;;;3.80;2.38;;;33.10;35.50;;;;;;5111735;28;20031;-82
2023/09/07 09:33:39;;;;;;;6.28;2.50;;;33.40;36.10;;;;;;5111491;28;20035;-83
2023/09/07 09:36:06;;;;;;;2.60;2.08;;;33.50;34.60;;;;;;5112748;27;20391;-82
2023/09/07 09:38:32;;;;;;;6.75;2.72;;;33.50;35.10;;;;;;5111483;28;20484;-83
2023/09/07 09:40:59;;;;;;;4.63;2.30;;;33.50;32.70;;;;;;5112652;28;20034;-82
2023/09/07 09:43:26;;;;;;;3.70;2.13;;;33.80;33.40;;;;;;5112133;28;20512;-81
2023/09/07 09:45:53;;;;;;;9.55;2.00;;;34.00;33.80;;;;;;5111446;28;20024;-83
2023/09/07 09:48:21;;;;;;;6.25;2.55;;;34.10;33.70;;;;;;5112736;28;20042;-82
2023/09/07 09:50:48;;;;;;;5.57;2.38;;;34.10;33.80;;;;;;5112863;28;20392;-81
2023/09/07 09:53:18;;;;;;;5.38;3.65;;;34.20;34.10;;;;;;5112464;28;20103;-83
2023/09/07 09:55:46;;;;;;;4.28;2.25;;;34.10;33.30;;;;;;5112740;28;20027;-82
2023/09/07 09:58:13;;;;;;;6.63;2.70;;;33.80;34.00;;;;;;5112047;28;20145;-82
2023/09/07 10:00:45;;;;;;;3.83;2.25;;;34.00;34.60;;;;;;5112725;28;20020;-83
2023/09/07 10:03:19;;;;;;;4.78;2.17;;;33.90;33.60;;;;;;5111510;28;20031;-82
2023/09/07 10:05:48;;;;;;;10.05;2.05;;;33.80;32.30;;;;;;5111385;28;20020;-82
2023/09/07 10:08:17;;;;;;;2.78;1.52;;;34.00;32.00;;;;;;5112596;28;20039;-82
2023/09/07 10:10:46;;;;;;;8.02;2.15;;;33.80;32.20;;;;;;5112110;28;20055;-83
2023/09/07 10:13:16;;;;;;;3.28;2.50;;;33.70;32.60;;;;;;5112893;28;20035;-82
2023/09/07 10:15:42;;;;;;;5.70;2.00;;;33.90;33.00;;;;;;5110762;28;20051;-82
2023/09/07 10:18:16;;;;;;;4.53;2.10;;;33.80;31.80;;;;;;5111404;28;20399;-82
2023/09/07 10:20:55;;;;;;;11.60;2.35;;;33.30;31.70;;;;;;5112623;28;20015;-82
2023/09/07 10:23:25;;;;;;;2.95;2.15;;;32.70;33.50;;;;;;5111751;28;20574;-82
2023/09/07 10:25:52;;;;;;;9.25;3.17;;;32.10;33.80;;;;;;5110437;28;20478;-80
2023/09/07 10:28:22;;;;;;;7.32;3.10;;;31.70;34.80;;;;;;5112576;28;20040;-82
2023/09/07 10:30:58;;;;;;;4.93;2.55;;;31.10;35.80;;;;;;5112583;28;20020;-82
2023/09/07 10:33:23;;;;;;;7.05;2.65;;;30.50;36.20;;;;;;5112695;28;20046;-82
2023/09/07 10:35:49;;;;;;;4.90;2.60;;;30.00;37.60;;;;;;5112177;28;20480;-82
2023/09/07 10:38:15;;;;;;;3.72;2.58;;;29.50;37.10;;;;;;5112666;28;20016;-83
2023/09/07 10:40:45;;;;;;;7.70;2.50;;;29.50;39.10;;;;;;5111461;28;20774;-80
2023/09/07 10:43:11;;;;;;;4.03;2.63;;;29.40;38.90;;;;;;5112439;28;20091;-82
2023/09/07 10:45:36;;;;;;;3.90;2.88;;;29.10;37.80;;;;;;5112306;28;20448;-82
2023/09/07 10:48:06;;;;;;;5.90;3.67;;;28.80;39.70;;;;;;5111152;28;20027;-82
2023/09/07 10:50:42;;;;;;;8.93;3.40;;;28.40;41.30;;;;;;5112009;28;20022;-82
2023/09/07 10:53:08;;;;;;;6.18;3.20;;;28.30;42.30;;;;;;5112311;28;20039;-81
2023/09/07 10:55:40;;;;;;;7.93;3.80;;;28.10;42.00;;;;;;5112162;28;20027;-82
2023/09/07 10:58:08;;;;;;;6.65;3.60;;;28.00;42.90;;;;;;5112155;28;20492;-82
2023/09/07 11:00:34;;;;;;;11.55;3.30;;;27.90;42.70;;;;;;5110955;28;20050;-81
2023/09/07 11:03:07;;;;;;;4.75;3.25;;;27.80;43.00;;;;;;5112462;28;20391;-82
2023/09/07 11:05:36;;;;;;;4.50;3.13;;;27.90;42.90;;;;;;5112084;28;20031;-82
2023/09/07 11:08:04;;;;;;;5.78;3.30;;;27.80;43.20;;;;;;5111101;28;20487;-82
2023/09/07 11:10:33;;;;;;;6.35;3.58;;;27.90;44.10;;;;;;5111006;28;20031;-81
2023/09/07 11:13:03;;;;;;;7.40;3.40;;;27.80;44.00;;;;;;5111981;28;20019;-82
2023/09/07 11:15:30;;;;;;;5.95;3.30;;;27.80;44.30;;;;;;5110664;28;20051;-82
2023/09/07 11:17:56;;;;;;;8.00;3.40;;;27.80;44.60;;;;;;5110687;28;20496;-81
2023/09/07 11:20:23;;;;;;;5.32;3.20;;;27.70;42.70;;;;;;5110384;28;20031;-82
2023/09/07 11:22:50;;;;;;;7.22;3.30;;;27.60;44.50;;;;;;5112418;28;20778;-82
2023/09/07 11:25:16;;;;;;;5.28;3.13;;;27.50;43.80;;;;;;5111957;28;20035;-82
2023/09/07 11:27:41;;;;;;;8.27;3.55;;;27.60;44.60;;;;;;5110465;28;20518;-82
2023/09/07 11:30:10;;;;;;;3.92;3.00;;;27.60;45.00;;;;;;5110362;28;20027;-82
2023/09/07 11:32:37;;;;;;;7.00;3.33;;;27.70;46.20;;;;;;5109192;28;20027;-83
2023/09/07 11:35:07;;;;;;;6.10;3.70;;;27.80;43.80;;;;;;5110194;28;20027;-82
2023/09/07 11:37:33;;;;;;;4.47;2.70;;;27.80;45.10;;;;;;5110972;28;20015;-82
2023/09/07 11:39:59;;;;;;;6.60;3.58;;;27.60;44.40;;;;;;5112150;28;20081;-83
2023/09/07 11:42:25;;;;;;;7.88;2.50;;;27.70;44.70;;;;;;5110691;28;20059;-83
2023/09/07 11:44:50;;;;;;;7.22;2.90;;;27.60;43.50;;;;;;5110017;28;20023;-82
2023/09/07 11:47:16;;;;;;;5.75;2.75;;;27.70;43.70;;;;;;5111230;28;20119;-81
2023/09/07 11:49:42;;;;;;;9.48;3.15;;;27.60;44.90;;;;;;5111164;28;20027;-82
2023/09/07 11:52:07;;;;;;;5.47;2.88;;;27.70;44.70;;;;;;5110173;28;20027;-82
2023/09/07 11:54:33;;;;;;;4.55;2.92;;;27.70;45.40;;;;;;5110778;28;20041;-83
2023/09/07 11:56:59;;;;;;;5.30;2.85;;;27.60;45.00;;;;;;5110964;28;20023;-83
2023/09/07 11:59:24;;;;;;;5.05;2.92;;;27.70;45.50;;;;;;5109256;28;20085;-82
2023/09/07 12:01:50;;;;;;;3.92;2.95;;;27.60;45.20;;;;;;5110088;28;20136;-84
2023/09/07 12:04:16;;;;;;;4.15;2.72;;;27.60;45.20;;;;;;5110532;28;20110;-83
2023/09/07 12:06:42;;;;;;;6.00;2.83;;;27.60;43.00;;;;;;5110391;28;20047;-83
2023/09/07 12:09:09;;;;;;;5.38;2.85;;;27.70;43.30;;;;;;5109594;28;20084;-83
2023/09/07 12:11:35;;;;;;;4.55;2.88;;;27.70;43.30;;;;;;5109009;28;20032;-84
2023/09/07 12:14:01;;;;;;;4.38;3.10;;;27.80;43.60;;;;;;5109347;28;20039;-83
2023/09/07 12:16:27;;;;;;;4.13;2.75;;;27.80;42.80;;;;;;5108879;28;20047;-83
2023/09/07 12:18:53;;;;;;;4.95;2.83;;;27.80;42.40;;;;;;5110394;28;20096;-83
2023/09/07 12:21:19;;;;;;;8.88;2.58;;;27.80;43.30;;;;;;5109489;28;20472;-82
2023/09/07 12:23:45;;;;;;;4.38;2.95;;;27.70;42.30;;;;;;5110141;28;20114;-83
2023/09/07 12:26:14;;;;;;;6.45;2.30;;;27.70;40.50;;;;;;5108871;28;20682;-82
2023/09/07 12:28:40;;;;;;;5.63;3.20;;;27.70;39.50;;;;;;5109881;28;20032;-82
2023/09/07 12:31:05;;;;;;;4.28;2.50;;;27.70;41.10;;;;;;5109070;28;20042;-82
2023/09/07 12:33:32;;;;;;;4.65;2.60;;;27.80;40.60;;;;;;5109858;28;20416;-82
2023/09/07 12:35:58;;;;;;;6.45;2.50;;;27.80;40.70;;;;;;5110307;28;20023;-82
2023/09/07 12:38:28;;;;;;;8.15;2.30;;;27.90;40.80;;;;;;5112252;28;20024;-83
2023/09/07 12:40:54;;;;;;;4.35;2.78;;;27.90;41.40;;;;;;5109928;28;20415;-84
2023/09/07 12:43:20;;;;;;;4.88;3.17;;;27.90;41.60;;;;;;5108584;28;20034;-84
2023/09/07 12:45:46;;;;;;;3.88;2.83;;;27.90;41.30;;;;;;5109943;28;20451;-83
2023/09/07 12:48:12;;;;;;;5.32;2.85;;;27.80;41.30;;;;;;5112215;28;20111;-82
2023/09/07 12:50:37;;;;;;;3.60;2.33;;;27.80;41.40;;;;;;5113366;28;20138;-83